sensor_id;sensor_type;location;lat;lon;timestamp;temperature;humidity
11840;DHT22;5979;50.800;4.904;2023-05-07T00:01:45;15.80;99.90
11840;DHT22;5979;50.800;4.904;2023-05-07T00:04:11;15.80;99.90
11840;DHT22;5979;50.800;4.904;2023-05-07T00:06:37;15.80;99.90
11840;DHT22;5979;50.800;4.904;2023-05-07T00:09:02;15.70;99.90
11840;DHT22;5979;50.800;4.904;2023-05-07T00:11:29;15.70;99.90
11840;DHT22;5979;50.800;4.904;2023-05-07T00:13:55;15.70;99.90
11840;DHT22;5979;50.800;4.904;2023-05-07T00:16:20;15.70;99.90
11840;DHT22;5979;50.800;4.904;2023-05-07T00:18:46;15.70;99.90
11840;DHT22;5979;50.800;4.904;2023-05-07T00:21:12;15.70;99.90
11840;DHT22;5979;50.800;4.904;2023-05-07T00:23:37;15.70;99.90
11840;DHT22;5979;50.800;4.904;2023-05-07T00:26:03;15.70;99.90
11840;DHT22;5979;50.800;4.904;2023-05-07T00:28:29;15.60;99.90
11840;DHT22;5979;50.800;4.904;2023-05-07T00:30:55;15.70;99.90
11840;DHT22;5979;50.800;4.904;2023-05-07T00:33:21;15.60;99.90
11840;DHT22;5979;50.800;4.904;2023-05-07T00:35:48;15.60;99.90
11840;DHT22;5979;50.800;4.904;2023-05-07T00:38:13;15.60;99.90
11840;DHT22;5979;50.800;4.904;2023-05-07T00:40:39;15.60;99.90
11840;DHT22;5979;50.800;4.904;2023-05-07T00:43:05;15.60;99.90
11840;DHT22;5979;50.800;4.904;2023-05-07T00:45:31;15.60;99.90
11840;DHT22;5979;50.800;4.904;2023-05-07T00:48:01;15.60;99.90
11840;DHT22;5979;50.800;4.904;2023-05-07T00:50:28;15.60;99.90
11840;DHT22;5979;50.800;4.904;2023-05-07T00:52:55;15.70;99.90
11840;DHT22;5979;50.800;4.904;2023-05-07T00:55:22;15.70;99.90
11840;DHT22;5979;50.800;4.904;2023-05-07T00:57:48;15.60;99.90
11840;DHT22;5979;50.800;4.904;2023-05-07T01:00:14;15.70;99.90
11840;DHT22;5979;50.800;4.904;2023-05-07T01:02:41;15.70;99.90
11840;DHT22;5979;50.800;4.904;2023-05-07T01:05:09;15.70;99.90
11840;DHT22;5979;50.800;4.904;2023-05-07T01:07:38;15.60;99.90
11840;DHT22;5979;50.800;4.904;2023-05-07T01:10:05;15.60;99.90
11840;DHT22;5979;50.800;4.904;2023-05-07T01:12:31;15.60;99.90
11840;DHT22;5979;50.800;4.904;2023-05-07T01:14:58;15.60;99.90
11840;DHT22;5979;50.800;4.904;2023-05-07T01:17:24;15.50;99.90
11840;DHT22;5979;50.800;4.904;2023-05-07T01:19:50;15.40;99.90
11840;DHT22;5979;50.800;4.904;2023-05-07T01:22:33;15.30;99.90
11840;DHT22;5979;50.800;4.904;2023-05-07T01:24:59;15.30;99.90
11840;DHT22;5979;50.800;4.904;2023-05-07T01:27:27;15.30;99.90
11840;DHT22;5979;50.800;4.904;2023-05-07T01:29:53;15.20;99.90
11840;DHT22;5979;50.800;4.904;2023-05-07T01:32:23;15.30;99.90
11840;DHT22;5979;50.800;4.904;2023-05-07T01:34:51;15.30;99.90
11840;DHT22;5979;50.800;4.904;2023-05-07T01:37:18;15.30;99.90
11840;DHT22;5979;50.800;4.904;2023-05-07T01:39:44;15.40;99.90
11840;DHT22;5979;50.800;4.904;2023-05-07T01:42:10;15.40;99.90
11840;DHT22;5979;50.800;4.904;2023-05-07T01:44:36;15.40;99.90
11840;DHT22;5979;50.800;4.904;2023-05-07T01:47:02;15.40;99.90
11840;DHT22;5979;50.800;4.904;2023-05-07T01:49:28;15.40;99.90
11840;DHT22;5979;50.800;4.904;2023-05-07T01:51:54;15.40;99.90
11840;DHT22;5979;50.800;4.904;2023-05-07T01:54:25;15.40;99.90
11840;DHT22;5979;50.800;4.904;2023-05-07T01:56:53;15.40;99.90
11840;DHT22;5979;50.800;4.904;2023-05-07T01:59:18;15.40;99.90
11840;DHT22;5979;50.800;4.904;2023-05-07T02:01:44;15.40;99.90
11840;DHT22;5979;50.800;4.904;2023-05-07T02:04:10;15.40;99.90
11840;DHT22;5979;50.800;4.904;2023-05-07T02:06:35;15.40;99.90
11840;DHT22;5979;50.800;4.904;2023-05-07T02:09:01;15.50;99.90
11840;DHT22;5979;50.800;4.904;2023-05-07T02:11:27;15.50;99.90
11840;DHT22;5979;50.800;4.904;2023-05-07T02:13:52;15.50;99.90
11840;DHT22;5979;50.800;4.904;2023-05-07T02:16:18;15.50;99.90
11840;DHT22;5979;50.800;4.904;2023-05-07T02:18:45;15.50;99.90
11840;DHT22;5979;50.800;4.904;2023-05-07T02:21:11;15.40;99.90
11840;DHT22;5979;50.800;4.904;2023-05-07T02:23:36;15.40;99.90
11840;DHT22;5979;50.800;4.904;2023-05-07T02:26:03;15.40;99.90
11840;DHT22;5979;50.800;4.904;2023-05-07T02:28:28;15.40;99.90
11840;DHT22;5979;50.800;4.904;2023-05-07T02:30:54;15.40;99.90
11840;DHT22;5979;50.800;4.904;2023-05-07T02:33:20;15.40;99.90
11840;DHT22;5979;50.800;4.904;2023-05-07T02:35:45;15.40;99.90
11840;DHT22;5979;50.800;4.904;2023-05-07T02:38:11;15.30;99.90
11840;DHT22;5979;50.800;4.904;2023-05-07T02:40:37;15.40;99.90
11840;DHT22;5979;50.800;4.904;2023-05-07T02:43:05;15.40;99.90
11840;DHT22;5979;50.800;4.904;2023-05-07T02:45:32;15.40;99.90
11840;DHT22;5979;50.800;4.904;2023-05-07T02:47:58;15.40;99.90
11840;DHT22;5979;50.800;4.904;2023-05-07T02:50:24;15.30;99.90
11840;DHT22;5979;50.800;4.904;2023-05-07T02:52:50;15.20;99.90
11840;DHT22;5979;50.800;4.904;2023-05-07T02:55:16;15.10;99.90
11840;DHT22;5979;50.800;4.904;2023-05-07T02:57:42;15.00;99.90
11840;DHT22;5979;50.800;4.904;2023-05-07T03:00:18;14.90;99.90
11840;DHT22;5979;50.800;4.904;2023-05-07T03:02:45;14.90;99.90
11840;DHT22;5979;50.800;4.904;2023-05-07T03:05:11;14.90;99.90
11840;DHT22;5979;50.800;4.904;2023-05-07T03:07:37;14.80;99.90
11840;DHT22;5979;50.800;4.904;2023-05-07T03:10:04;14.80;99.90
11840;DHT22;5979;50.800;4.904;2023-05-07T03:12:30;14.80;99.90
11840;DHT22;5979;50.800;4.904;2023-05-07T03:14:56;14.80;99.90
11840;DHT22;5979;50.800;4.904;2023-05-07T03:17:22;14.80;99.90
11840;DHT22;5979;50.800;4.904;2023-05-07T03:19:47;14.80;99.90
11840;DHT22;5979;50.800;4.904;2023-05-07T03:22:13;14.90;99.90
11840;DHT22;5979;50.800;4.904;2023-05-07T03:24:39;14.90;99.90
11840;DHT22;5979;50.800;4.904;2023-05-07T03:27:05;15.00;99.90
11840;DHT22;5979;50.800;4.904;2023-05-07T03:29:31;15.00;99.90
11840;DHT22;5979;50.800;4.904;2023-05-07T03:31:56;15.00;99.90
11840;DHT22;5979;50.800;4.904;2023-05-07T03:34:22;15.00;99.90
11840;DHT22;5979;50.800;4.904;2023-05-07T03:36:48;15.10;99.90
11840;DHT22;5979;50.800;4.904;2023-05-07T03:39:14;15.10;99.90
11840;DHT22;5979;50.800;4.904;2023-05-07T03:41:40;15.10;99.90
11840;DHT22;5979;50.800;4.904;2023-05-07T03:44:06;15.10;99.90
11840;DHT22;5979;50.800;4.904;2023-05-07T03:46:32;15.20;99.90
11840;DHT22;5979;50.800;4.904;2023-05-07T03:48:58;15.20;99.90
11840;DHT22;5979;50.800;4.904;2023-05-07T03:51:24;15.20;99.90
11840;DHT22;5979;50.800;4.904;2023-05-07T03:53:50;15.10;99.90
11840;DHT22;5979;50.800;4.904;2023-05-07T03:56:18;15.20;99.90
11840;DHT22;5979;50.800;4.904;2023-05-07T03:58:44;15.10;99.90
11840;DHT22;5979;50.800;4.904;2023-05-07T04:01:10;15.20;99.90
11840;DHT22;5979;50.800;4.904;2023-05-07T04:03:36;15.20;99.90
11840;DHT22;5979;50.800;4.904;2023-05-07T04:06:02;15.20;99.90
11840;DHT22;5979;50.800;4.904;2023-05-07T04:08:28;15.20;99.90
11840;DHT22;5979;50.800;4.904;2023-05-07T04:10:57;15.20;99.90
11840;DHT22;5979;50.800;4.904;2023-05-07T04:13:23;15.20;99.90
11840;DHT22;5979;50.800;4.904;2023-05-07T04:15:50;15.20;99.90
11840;DHT22;5979;50.800;4.904;2023-05-07T04:18:15;15.20;99.90
11840;DHT22;5979;50.800;4.904;2023-05-07T04:20:41;15.20;99.90
11840;DHT22;5979;50.800;4.904;2023-05-07T04:23:07;15.20;99.90
11840;DHT22;5979;50.800;4.904;2023-05-07T04:25:33;15.20;99.90
11840;DHT22;5979;50.800;4.904;2023-05-07T04:27:59;15.20;99.90
11840;DHT22;5979;50.800;4.904;2023-05-07T04:30:25;15.20;99.90
11840;DHT22;5979;50.800;4.904;2023-05-07T04:32:51;15.20;99.90
11840;DHT22;5979;50.800;4.904;2023-05-07T04:35:17;15.20;99.90
11840;DHT22;5979;50.800;4.904;2023-05-07T04:37:43;15.20;99.90
11840;DHT22;5979;50.800;4.904;2023-05-07T04:40:08;15.20;99.90
11840;DHT22;5979;50.800;4.904;2023-05-07T04:42:35;15.20;99.90
11840;DHT22;5979;50.800;4.904;2023-05-07T04:45:01;15.20;99.90
11840;DHT22;5979;50.800;4.904;2023-05-07T04:47:27;15.20;99.90
11840;DHT22;5979;50.800;4.904;2023-05-07T04:49:53;15.30;99.90
11840;DHT22;5979;50.800;4.904;2023-05-07T04:52:18;15.30;99.90
11840;DHT22;5979;50.800;4.904;2023-05-07T04:54:44;15.30;99.90
11840;DHT22;5979;50.800;4.904;2023-05-07T04:57:10;15.30;99.90
11840;DHT22;5979;50.800;4.904;2023-05-07T04:59:35;15.30;99.90
11840;DHT22;5979;50.800;4.904;2023-05-07T05:02:01;15.30;99.90
11840;DHT22;5979;50.800;4.904;2023-05-07T05:04:29;15.40;99.90
11840;DHT22;5979;50.800;4.904;2023-05-07T05:06:55;15.40;99.90
11840;DHT22;5979;50.800;4.904;2023-05-07T05:09:21;15.40;99.90
11840;DHT22;5979;50.800;4.904;2023-05-07T05:11:47;15.40;99.90
11840;DHT22;5979;50.800;4.904;2023-05-07T05:14:13;15.40;99.90
11840;DHT22;5979;50.800;4.904;2023-05-07T05:16:38;15.50;99.90
11840;DHT22;5979;50.800;4.904;2023-05-07T05:19:04;15.50;99.90
11840;DHT22;5979;50.800;4.904;2023-05-07T05:21:31;15.40;99.90
11840;DHT22;5979;50.800;4.904;2023-05-07T05:23:57;15.50;99.90
11840;DHT22;5979;50.800;4.904;2023-05-07T05:26:22;15.50;99.90
11840;DHT22;5979;50.800;4.904;2023-05-07T05:28:48;15.60;99.90
11840;DHT22;5979;50.800;4.904;2023-05-07T05:31:13;15.70;99.90
11840;DHT22;5979;50.800;4.904;2023-05-07T05:33:39;15.90;99.90
11840;DHT22;5979;50.800;4.904;2023-05-07T05:36:06;16.00;99.90
11840;DHT22;5979;50.800;4.904;2023-05-07T05:38:32;16.20;99.90
11840;DHT22;5979;50.800;4.904;2023-05-07T05:40:57;16.30;99.90
11840;DHT22;5979;50.800;4.904;2023-05-07T05:43:23;16.40;99.90
11840;DHT22;5979;50.800;4.904;2023-05-07T05:45:49;16.40;99.90
11840;DHT22;5979;50.800;4.904;2023-05-07T05:48:14;16.50;99.90
11840;DHT22;5979;50.800;4.904;2023-05-07T05:50:42;16.60;99.90
11840;DHT22;5979;50.800;4.904;2023-05-07T05:53:08;16.60;99.90
11840;DHT22;5979;50.800;4.904;2023-05-07T05:55:34;16.80;99.90
11840;DHT22;5979;50.800;4.904;2023-05-07T05:58:00;16.80;99.90
11840;DHT22;5979;50.800;4.904;2023-05-07T06:00:26;16.80;99.90
11840;DHT22;5979;50.800;4.904;2023-05-07T06:02:52;16.80;99.90
11840;DHT22;5979;50.800;4.904;2023-05-07T06:05:18;16.90;99.90
11840;DHT22;5979;50.800;4.904;2023-05-07T06:07:43;16.90;99.90
11840;DHT22;5979;50.800;4.904;2023-05-07T06:10:09;16.90;99.90
11840;DHT22;5979;50.800;4.904;2023-05-07T06:12:35;17.00;99.90
11840;DHT22;5979;50.800;4.904;2023-05-07T06:15:01;17.00;99.90
11840;DHT22;5979;50.800;4.904;2023-05-07T06:17:27;17.00;99.90
11840;DHT22;5979;50.800;4.904;2023-05-07T06:19:53;17.10;99.90
11840;DHT22;5979;50.800;4.904;2023-05-07T06:22:18;17.20;99.90
11840;DHT22;5979;50.800;4.904;2023-05-07T06:24:44;17.30;99.90
11840;DHT22;5979;50.800;4.904;2023-05-07T06:27:10;17.50;99.90
11840;DHT22;5979;50.800;4.904;2023-05-07T06:29:36;17.60;99.90
11840;DHT22;5979;50.800;4.904;2023-05-07T06:32:09;17.80;99.90
11840;DHT22;5979;50.800;4.904;2023-05-07T06:34:35;17.90;99.90
11840;DHT22;5979;50.800;4.904;2023-05-07T06:37:01;18.00;99.90
11840;DHT22;5979;50.800;4.904;2023-05-07T06:39:26;18.10;99.90
11840;DHT22;5979;50.800;4.904;2023-05-07T06:41:52;18.10;99.90
11840;DHT22;5979;50.800;4.904;2023-05-07T06:44:18;18.10;99.90
11840;DHT22;5979;50.800;4.904;2023-05-07T06:46:44;18.00;99.90
11840;DHT22;5979;50.800;4.904;2023-05-07T06:49:10;18.00;99.90
11840;DHT22;5979;50.800;4.904;2023-05-07T06:51:36;18.00;99.90
11840;DHT22;5979;50.800;4.904;2023-05-07T06:54:02;17.90;99.90
11840;DHT22;5979;50.800;4.904;2023-05-07T06:56:30;17.90;99.90
11840;DHT22;5979;50.800;4.904;2023-05-07T06:58:55;17.80;99.90
11840;DHT22;5979;50.800;4.904;2023-05-07T07:01:21;17.80;99.90
11840;DHT22;5979;50.800;4.904;2023-05-07T07:03:47;17.80;99.90
11840;DHT22;5979;50.800;4.904;2023-05-07T07:06:13;17.80;99.90
11840;DHT22;5979;50.800;4.904;2023-05-07T07:08:38;17.90;99.90
11840;DHT22;5979;50.800;4.904;2023-05-07T07:11:05;17.90;99.90
11840;DHT22;5979;50.800;4.904;2023-05-07T07:13:31;17.90;99.90
11840;DHT22;5979;50.800;4.904;2023-05-07T07:15:56;18.00;99.90
11840;DHT22;5979;50.800;4.904;2023-05-07T07:18:22;18.10;99.90
11840;DHT22;5979;50.800;4.904;2023-05-07T07:20:48;18.30;99.90
11840;DHT22;5979;50.800;4.904;2023-05-07T07:23:14;18.40;99.90
11840;DHT22;5979;50.800;4.904;2023-05-07T07:25:39;18.50;99.90
11840;DHT22;5979;50.800;4.904;2023-05-07T07:28:06;18.60;99.90
11840;DHT22;5979;50.800;4.904;2023-05-07T07:30:32;18.60;99.90
11840;DHT22;5979;50.800;4.904;2023-05-07T07:32:57;18.60;99.90
11840;DHT22;5979;50.800;4.904;2023-05-07T07:35:31;18.60;99.90
11840;DHT22;5979;50.800;4.904;2023-05-07T07:37:57;18.60;99.90
11840;DHT22;5979;50.800;4.904;2023-05-07T07:40:23;18.60;99.90
11840;DHT22;5979;50.800;4.904;2023-05-07T07:42:48;18.70;99.90
11840;DHT22;5979;50.800;4.904;2023-05-07T07:45:14;18.70;99.90
11840;DHT22;5979;50.800;4.904;2023-05-07T07:47:40;18.90;99.90
11840;DHT22;5979;50.800;4.904;2023-05-07T07:50:07;18.90;99.90
11840;DHT22;5979;50.800;4.904;2023-05-07T07:52:33;19.00;99.90
11840;DHT22;5979;50.800;4.904;2023-05-07T07:54:59;19.10;99.90
11840;DHT22;5979;50.800;4.904;2023-05-07T07:57:24;19.20;99.90
11840;DHT22;5979;50.800;4.904;2023-05-07T07:59:50;19.40;99.90
11840;DHT22;5979;50.800;4.904;2023-05-07T08:02:17;19.50;99.90
11840;DHT22;5979;50.800;4.904;2023-05-07T08:04:43;19.60;99.90
11840;DHT22;5979;50.800;4.904;2023-05-07T08:07:12;19.50;99.90
11840;DHT22;5979;50.800;4.904;2023-05-07T08:09:38;19.60;99.90
11840;DHT22;5979;50.800;4.904;2023-05-07T08:12:05;19.60;99.90
11840;DHT22;5979;50.800;4.904;2023-05-07T08:14:31;19.80;99.90
11840;DHT22;5979;50.800;4.904;2023-05-07T08:16:57;20.00;99.90
11840;DHT22;5979;50.800;4.904;2023-05-07T08:19:23;20.20;99.90
11840;DHT22;5979;50.800;4.904;2023-05-07T08:21:49;20.30;99.90
11840;DHT22;5979;50.800;4.904;2023-05-07T08:24:15;20.50;99.90
11840;DHT22;5979;50.800;4.904;2023-05-07T08:26:41;20.60;99.90
11840;DHT22;5979;50.800;4.904;2023-05-07T08:29:07;20.70;99.90
11840;DHT22;5979;50.800;4.904;2023-05-07T08:31:33;20.80;99.90
11840;DHT22;5979;50.800;4.904;2023-05-07T08:33:59;20.90;99.90
11840;DHT22;5979;50.800;4.904;2023-05-07T08:36:25;20.90;99.90
11840;DHT22;5979;50.800;4.904;2023-05-07T08:38:54;21.00;99.90
11840;DHT22;5979;50.800;4.904;2023-05-07T08:41:20;21.10;99.90
11840;DHT22;5979;50.800;4.904;2023-05-07T08:43:50;21.10;99.90
11840;DHT22;5979;50.800;4.904;2023-05-07T08:46:22;21.10;99.90
11840;DHT22;5979;50.800;4.904;2023-05-07T08:48:48;21.10;99.90
11840;DHT22;5979;50.800;4.904;2023-05-07T08:51:20;21.00;99.90
11840;DHT22;5979;50.800;4.904;2023-05-07T08:53:47;21.00;99.90
11840;DHT22;5979;50.800;4.904;2023-05-07T08:56:16;20.90;99.90
11840;DHT22;5979;50.800;4.904;2023-05-07T08:58:43;20.80;99.90
11840;DHT22;5979;50.800;4.904;2023-05-07T09:01:12;20.70;99.90
11840;DHT22;5979;50.800;4.904;2023-05-07T09:03:39;20.50;99.90
11840;DHT22;5979;50.800;4.904;2023-05-07T09:06:05;20.50;99.90
11840;DHT22;5979;50.800;4.904;2023-05-07T09:08:33;20.50;99.90
11840;DHT22;5979;50.800;4.904;2023-05-07T09:10:59;20.40;99.90
11840;DHT22;5979;50.800;4.904;2023-05-07T09:13:27;20.40;99.90
11840;DHT22;5979;50.800;4.904;2023-05-07T09:15:53;20.30;99.90
11840;DHT22;5979;50.800;4.904;2023-05-07T09:18:18;20.20;99.90
11840;DHT22;5979;50.800;4.904;2023-05-07T09:20:44;20.20;99.90
11840;DHT22;5979;50.800;4.904;2023-05-07T09:23:10;20.10;99.90
11840;DHT22;5979;50.800;4.904;2023-05-07T09:25:36;20.00;99.90
11840;DHT22;5979;50.800;4.904;2023-05-07T09:28:04;20.00;99.90
11840;DHT22;5979;50.800;4.904;2023-05-07T09:30:32;19.80;99.90
11840;DHT22;5979;50.800;4.904;2023-05-07T09:32:58;19.80;99.90
11840;DHT22;5979;50.800;4.904;2023-05-07T09:35:25;19.70;99.90
11840;DHT22;5979;50.800;4.904;2023-05-07T09:37:57;19.60;99.90
11840;DHT22;5979;50.800;4.904;2023-05-07T09:40:25;19.60;99.90
11840;DHT22;5979;50.800;4.904;2023-05-07T09:42:51;19.50;99.90
11840;DHT22;5979;50.800;4.904;2023-05-07T09:45:25;19.50;99.90
11840;DHT22;5979;50.800;4.904;2023-05-07T09:47:55;19.40;99.90
11840;DHT22;5979;50.800;4.904;2023-05-07T09:50:26;19.40;99.90
11840;DHT22;5979;50.800;4.904;2023-05-07T09:52:54;19.40;99.90
11840;DHT22;5979;50.800;4.904;2023-05-07T09:55:21;19.40;99.90
11840;DHT22;5979;50.800;4.904;2023-05-07T09:57:50;19.30;99.90
11840;DHT22;5979;50.800;4.904;2023-05-07T10:00:17;19.10;99.90
11840;DHT22;5979;50.800;4.904;2023-05-07T10:02:46;19.10;99.90
11840;DHT22;5979;50.800;4.904;2023-05-07T10:05:14;19.10;99.90
11840;DHT22;5979;50.800;4.904;2023-05-07T10:07:40;19.00;99.90
11840;DHT22;5979;50.800;4.904;2023-05-07T10:10:07;19.10;99.90
11840;DHT22;5979;50.800;4.904;2023-05-07T10:12:33;19.10;99.90
11840;DHT22;5979;50.800;4.904;2023-05-07T10:15:08;19.00;99.90
11840;DHT22;5979;50.800;4.904;2023-05-07T10:17:38;18.80;99.90
11840;DHT22;5979;50.800;4.904;2023-05-07T10:20:08;18.70;99.90
11840;DHT22;5979;50.800;4.904;2023-05-07T10:22:45;18.60;99.90
11840;DHT22;5979;50.800;4.904;2023-05-07T10:25:22;18.70;99.90
11840;DHT22;5979;50.800;4.904;2023-05-07T10:27:50;18.80;99.90
11840;DHT22;5979;50.800;4.904;2023-05-07T10:30:26;18.90;99.90
11840;DHT22;5979;50.800;4.904;2023-05-07T10:33:00;18.90;99.90
11840;DHT22;5979;50.800;4.904;2023-05-07T10:35:32;19.00;99.90
11840;DHT22;5979;50.800;4.904;2023-05-07T10:38:02;19.10;99.90
11840;DHT22;5979;50.800;4.904;2023-05-07T10:40:27;19.20;99.90
11840;DHT22;5979;50.800;4.904;2023-05-07T10:43:01;19.30;99.90
11840;DHT22;5979;50.800;4.904;2023-05-07T10:45:28;19.30;99.90
11840;DHT22;5979;50.800;4.904;2023-05-07T10:48:14;19.40;99.90
11840;DHT22;5979;50.800;4.904;2023-05-07T10:50:41;19.50;99.90
11840;DHT22;5979;50.800;4.904;2023-05-07T10:55:48;19.70;99.90
11840;DHT22;5979;50.800;4.904;2023-05-07T11:00:49;19.50;99.90
11840;DHT22;5979;50.800;4.904;2023-05-07T11:03:15;19.50;99.90
11840;DHT22;5979;50.800;4.904;2023-05-07T11:05:41;19.50;99.90
11840;DHT22;5979;50.800;4.904;2023-05-07T11:08:08;19.60;99.90
11840;DHT22;5979;50.800;4.904;2023-05-07T11:10:54;19.60;99.90
11840;DHT22;5979;50.800;4.904;2023-05-07T11:16:21;19.80;99.90
11840;DHT22;5979;50.800;4.904;2023-05-07T11:18:50;19.90;99.90
11840;DHT22;5979;50.800;4.904;2023-05-07T11:21:36;19.90;99.90
11840;DHT22;5979;50.800;4.904;2023-05-07T11:24:03;20.10;99.90
11840;DHT22;5979;50.800;4.904;2023-05-07T11:26:41;20.20;99.90
11840;DHT22;5979;50.800;4.904;2023-05-07T11:29:15;20.30;99.90
11840;DHT22;5979;50.800;4.904;2023-05-07T11:31:41;20.40;99.90
11840;DHT22;5979;50.800;4.904;2023-05-07T11:34:07;20.50;99.90
11840;DHT22;5979;50.800;4.904;2023-05-07T11:36:33;20.50;99.90
11840;DHT22;5979;50.800;4.904;2023-05-07T11:38:59;20.60;99.90
11840;DHT22;5979;50.800;4.904;2023-05-07T11:41:43;20.70;99.90
11840;DHT22;5979;50.800;4.904;2023-05-07T11:44:08;20.70;99.90
11840;DHT22;5979;50.800;4.904;2023-05-07T11:46:34;20.70;99.90
11840;DHT22;5979;50.800;4.904;2023-05-07T11:49:00;20.70;99.90
11840;DHT22;5979;50.800;4.904;2023-05-07T11:51:26;20.70;99.90
11840;DHT22;5979;50.800;4.904;2023-05-07T11:53:52;20.60;99.90
11840;DHT22;5979;50.800;4.904;2023-05-07T11:56:19;20.60;99.90
11840;DHT22;5979;50.800;4.904;2023-05-07T11:58:46;20.50;99.90
11840;DHT22;5979;50.800;4.904;2023-05-07T12:01:13;20.50;99.90
11840;DHT22;5979;50.800;4.904;2023-05-07T12:03:43;20.40;99.90
11840;DHT22;5979;50.800;4.904;2023-05-07T12:06:10;20.40;99.90
11840;DHT22;5979;50.800;4.904;2023-05-07T12:08:38;20.30;99.90
11840;DHT22;5979;50.800;4.904;2023-05-07T12:11:07;20.30;99.90
11840;DHT22;5979;50.800;4.904;2023-05-07T12:13:34;20.40;99.90
11840;DHT22;5979;50.800;4.904;2023-05-07T12:16:00;20.40;99.90
11840;DHT22;5979;50.800;4.904;2023-05-07T12:18:28;20.40;99.90
11840;DHT22;5979;50.800;4.904;2023-05-07T12:20:55;20.40;99.90
11840;DHT22;5979;50.800;4.904;2023-05-07T12:23:21;20.50;99.90
11840;DHT22;5979;50.800;4.904;2023-05-07T12:25:47;20.60;99.90
11840;DHT22;5979;50.800;4.904;2023-05-07T12:28:15;20.60;99.90
11840;DHT22;5979;50.800;4.904;2023-05-07T12:30:43;20.70;99.90
11840;DHT22;5979;50.800;4.904;2023-05-07T12:33:09;20.70;99.90
11840;DHT22;5979;50.800;4.904;2023-05-07T12:35:40;20.70;99.90
11840;DHT22;5979;50.800;4.904;2023-05-07T12:38:17;20.80;99.90
11840;DHT22;5979;50.800;4.904;2023-05-07T12:40:45;20.80;99.90
11840;DHT22;5979;50.800;4.904;2023-05-07T12:43:19;20.80;99.90
11840;DHT22;5979;50.800;4.904;2023-05-07T12:45:50;20.90;99.90
11840;DHT22;5979;50.800;4.904;2023-05-07T12:48:16;20.80;99.90
11840;DHT22;5979;50.800;4.904;2023-05-07T12:50:42;20.70;99.90
11840;DHT22;5979;50.800;4.904;2023-05-07T12:53:10;20.70;99.90
11840;DHT22;5979;50.800;4.904;2023-05-07T12:55:50;20.70;99.90
11840;DHT22;5979;50.800;4.904;2023-05-07T12:58:20;20.70;99.90
11840;DHT22;5979;50.800;4.904;2023-05-07T13:00:48;20.60;99.90
11840;DHT22;5979;50.800;4.904;2023-05-07T13:03:29;20.50;99.90
11840;DHT22;5979;50.800;4.904;2023-05-07T13:05:58;20.50;99.90
11840;DHT22;5979;50.800;4.904;2023-05-07T13:08:36;20.60;99.90
11840;DHT22;5979;50.800;4.904;2023-05-07T13:11:04;20.70;99.90
11840;DHT22;5979;50.800;4.904;2023-05-07T13:13:31;20.70;99.90
11840;DHT22;5979;50.800;4.904;2023-05-07T13:15:56;20.80;99.90
11840;DHT22;5979;50.800;4.904;2023-05-07T13:18:23;20.90;99.90
11840;DHT22;5979;50.800;4.904;2023-05-07T13:20:49;21.00;99.90
11840;DHT22;5979;50.800;4.904;2023-05-07T13:23:15;21.10;99.90
11840;DHT22;5979;50.800;4.904;2023-05-07T13:25:41;21.10;99.90
11840;DHT22;5979;50.800;4.904;2023-05-07T13:28:06;21.10;99.90
11840;DHT22;5979;50.800;4.904;2023-05-07T13:30:32;21.20;99.90
11840;DHT22;5979;50.800;4.904;2023-05-07T13:32:57;21.20;99.90
11840;DHT22;5979;50.800;4.904;2023-05-07T13:35:23;21.10;99.90
11840;DHT22;5979;50.800;4.904;2023-05-07T13:37:49;21.00;99.90
11840;DHT22;5979;50.800;4.904;2023-05-07T13:40:15;21.00;99.90
11840;DHT22;5979;50.800;4.904;2023-05-07T13:42:40;21.00;99.90
11840;DHT22;5979;50.800;4.904;2023-05-07T13:45:07;21.00;99.90
11840;DHT22;5979;50.800;4.904;2023-05-07T13:47:34;21.00;99.90
11840;DHT22;5979;50.800;4.904;2023-05-07T13:49:59;21.00;99.90
11840;DHT22;5979;50.800;4.904;2023-05-07T13:52:25;20.90;99.90
11840;DHT22;5979;50.800;4.904;2023-05-07T13:54:51;20.90;99.90
11840;DHT22;5979;50.800;4.904;2023-05-07T13:57:21;20.90;99.90
11840;DHT22;5979;50.800;4.904;2023-05-07T13:59:47;20.90;99.90
11840;DHT22;5979;50.800;4.904;2023-05-07T14:02:13;21.00;99.90
11840;DHT22;5979;50.800;4.904;2023-05-07T14:04:38;21.00;99.90
11840;DHT22;5979;50.800;4.904;2023-05-07T14:07:04;21.00;99.90
11840;DHT22;5979;50.800;4.904;2023-05-07T14:09:30;21.00;99.90
11840;DHT22;5979;50.800;4.904;2023-05-07T14:11:56;21.00;99.90
11840;DHT22;5979;50.800;4.904;2023-05-07T14:14:21;20.90;99.90
11840;DHT22;5979;50.800;4.904;2023-05-07T14:16:47;20.90;99.90
11840;DHT22;5979;50.800;4.904;2023-05-07T14:19:12;20.90;99.90
11840;DHT22;5979;50.800;4.904;2023-05-07T14:21:38;20.80;99.90
11840;DHT22;5979;50.800;4.904;2023-05-07T14:24:06;20.90;99.90
11840;DHT22;5979;50.800;4.904;2023-05-07T14:26:32;20.90;99.90
11840;DHT22;5979;50.800;4.904;2023-05-07T14:28:58;20.80;99.90
11840;DHT22;5979;50.800;4.904;2023-05-07T14:31:24;20.80;99.90
11840;DHT22;5979;50.800;4.904;2023-05-07T14:33:50;20.70;99.90
11840;DHT22;5979;50.800;4.904;2023-05-07T14:36:17;20.60;99.90
11840;DHT22;5979;50.800;4.904;2023-05-07T14:38:45;20.60;99.90
11840;DHT22;5979;50.800;4.904;2023-05-07T14:41:11;20.50;99.90
11840;DHT22;5979;50.800;4.904;2023-05-07T14:43:37;20.40;99.90
11840;DHT22;5979;50.800;4.904;2023-05-07T14:46:02;20.30;99.90
11840;DHT22;5979;50.800;4.904;2023-05-07T14:48:28;20.30;99.90
11840;DHT22;5979;50.800;4.904;2023-05-07T14:50:54;20.40;99.90
11840;DHT22;5979;50.800;4.904;2023-05-07T14:53:20;20.50;99.90
11840;DHT22;5979;50.800;4.904;2023-05-07T14:55:47;20.50;99.90
11840;DHT22;5979;50.800;4.904;2023-05-07T14:58:13;20.50;99.90
11840;DHT22;5979;50.800;4.904;2023-05-07T15:00:39;20.40;99.90
11840;DHT22;5979;50.800;4.904;2023-05-07T15:03:07;20.40;99.90
11840;DHT22;5979;50.800;4.904;2023-05-07T15:05:33;20.40;99.90
11840;DHT22;5979;50.800;4.904;2023-05-07T15:07:59;20.30;99.90
11840;DHT22;5979;50.800;4.904;2023-05-07T15:10:25;20.20;99.90
11840;DHT22;5979;50.800;4.904;2023-05-07T15:12:51;20.10;99.90
11840;DHT22;5979;50.800;4.904;2023-05-07T15:15:17;20.10;99.90
11840;DHT22;5979;50.800;4.904;2023-05-07T15:17:43;20.10;99.90
11840;DHT22;5979;50.800;4.904;2023-05-07T15:20:08;20.20;99.90
11840;DHT22;5979;50.800;4.904;2023-05-07T15:22:35;20.30;99.90
11840;DHT22;5979;50.800;4.904;2023-05-07T15:25:03;20.40;99.90
11840;DHT22;5979;50.800;4.904;2023-05-07T15:27:30;20.40;99.90
11840;DHT22;5979;50.800;4.904;2023-05-07T15:29:56;20.40;99.90
11840;DHT22;5979;50.800;4.904;2023-05-07T15:32:22;20.50;99.90
11840;DHT22;5979;50.800;4.904;2023-05-07T15:34:48;20.50;99.90
11840;DHT22;5979;50.800;4.904;2023-05-07T15:37:14;20.60;99.90
11840;DHT22;5979;50.800;4.904;2023-05-07T15:39:39;20.60;99.90
11840;DHT22;5979;50.800;4.904;2023-05-07T15:42:05;20.60;99.90
11840;DHT22;5979;50.800;4.904;2023-05-07T15:44:31;20.70;99.90
11840;DHT22;5979;50.800;4.904;2023-05-07T15:46:59;20.70;99.90
11840;DHT22;5979;50.800;4.904;2023-05-07T15:49:25;20.60;99.90
11840;DHT22;5979;50.800;4.904;2023-05-07T15:51:50;20.60;99.90